createdAt,value
2022-08-11T00:03:43.478Z,17.30
2022-08-11T00:08:51.347Z,16.80
2022-08-11T00:13:53.160Z,16.70
2022-08-11T00:18:57.704Z,16.70
2022-08-11T00:24:03.716Z,16.80
2022-08-11T00:29:10.558Z,16.80
2022-08-11T00:34:13.106Z,16.80
2022-08-11T00:39:17.078Z,16.80
2022-08-11T00:44:41.958Z,16.20
2022-08-11T00:50:09.090Z,16.60
2022-08-11T00:55:47.269Z,16.50
2022-08-11T01:01:16.179Z,16.40
2022-08-11T01:06:38.879Z,16.30
2022-08-11T01:12:17.600Z,16.10
2022-08-11T01:17:56.729Z,16.00
2022-08-11T01:23:20.433Z,15.80
2022-08-11T01:28:55.334Z,15.60
2022-08-11T01:34:20.910Z,16.00
2022-08-11T01:39:41.569Z,16.00
2022-08-11T01:55:26.712Z,15.90
2022-08-11T02:06:01.040Z,15.70
2022-08-11T02:11:31.542Z,15.60
2022-08-11T02:16:55.193Z,15.60
2022-08-11T02:22:40.292Z,14.90
2022-08-11T02:27:51.418Z,14.90
2022-08-11T02:33:37.558Z,17.30
2022-08-11T02:39:13.620Z,15.30
2022-08-11T02:44:21.298Z,15.30
2022-08-11T02:50:02.734Z,15.40
2022-08-11T02:55:56.285Z,15.30
2022-08-11T03:00:48.687Z,15.30
2022-08-11T03:06:00.257Z,15.30
2022-08-11T03:11:36.404Z,15.10
2022-08-11T03:16:51.231Z,14.60
2022-08-11T03:22:06.638Z,14.80
2022-08-11T03:27:20.203Z,14.70
2022-08-11T03:32:40.149Z,14.80
2022-08-11T03:38:06.591Z,14.60
2022-08-11T03:43:37.007Z,14.50
2022-08-11T03:49:11.748Z,14.50
2022-08-11T03:54:25.407Z,14.70
2022-08-11T03:59:56.589Z,14.70
2022-08-11T04:05:20.342Z,14.60
2022-08-11T04:10:52.414Z,14.70
2022-08-11T04:16:12.403Z,16.60
2022-08-11T04:26:47.308Z,14.50
2022-08-11T04:32:10.661Z,14.40
2022-08-11T04:37:40.164Z,14.30
2022-08-11T04:43:22.775Z,14.20
2022-08-11T04:49:25.876Z,14.20
2022-08-11T04:55:24.133Z,14.40
2022-08-11T05:00:54.927Z,14.10
2022-08-11T05:06:42.095Z,14.10
2022-08-11T05:17:27.710Z,14.20
2022-08-11T05:22:50.221Z,13.90
2022-08-11T05:28:29.216Z,14.30
2022-08-11T05:33:54.334Z,14.50
2022-08-11T05:39:21.178Z,14.40
2022-08-11T05:44:58.391Z,14.60
2022-08-11T05:56:03.089Z,14.70
2022-08-11T06:01:07.176Z,15.10
2022-08-11T06:06:10.708Z,15.10
2022-08-11T06:11:13.130Z,15.50
2022-08-11T06:16:21.632Z,15.70
2022-08-11T06:36:50.850Z,16.70
2022-08-11T06:42:08.015Z,18.20
2022-08-11T06:47:12.976Z,18.70
2022-08-11T06:52:35.264Z,18.70
2022-08-11T06:57:59.238Z,19.10
2022-08-11T07:03:10.946Z,19.30
2022-08-11T07:08:59.261Z,19.70
2022-08-11T07:14:21.543Z,19.90
2022-08-11T07:19:45.814Z,20.20
2022-08-11T07:25:24.416Z,20.50
2022-08-11T07:30:27.659Z,20.60
2022-08-11T07:35:38.975Z,20.70
2022-08-11T07:40:43.333Z,21.10
2022-08-11T07:46:05.089Z,21.00
2022-08-11T07:51:25.794Z,21.30
2022-08-11T07:56:45.585Z,21.50
2022-08-11T08:02:08.875Z,21.70
2022-08-11T08:07:30.071Z,21.80
2022-08-11T08:12:51.068Z,22.00
2022-08-11T08:18:10.070Z,22.10
2022-08-11T08:23:33.190Z,22.10
2022-08-11T08:28:35.567Z,22.20
2022-08-11T08:33:42.004Z,22.50
2022-08-11T08:38:54.346Z,22.20
2022-08-11T08:44:21.138Z,22.50
2022-08-11T08:52:18.669Z,22.50
2022-08-11T08:55:04.336Z,22.40
2022-08-11T09:00:13.805Z,23.30
2022-08-11T09:05:19.772Z,23.00
2022-08-11T09:15:26.098Z,23.70
2022-08-11T09:20:33.168Z,23.70
2022-08-11T09:25:54.398Z,23.70
2022-08-11T09:30:57.664Z,23.40
2022-08-11T09:36:20.946Z,23.30
2022-08-11T09:42:01.845Z,23.80
2022-08-11T09:47:00.452Z,23.90
2022-08-11T09:52:09.472Z,23.90
2022-08-11T09:57:34.291Z,23.90
2022-08-11T10:02:42.000Z,23.60
2022-08-11T10:07:50.391Z,24.90
2022-08-11T10:13:00.085Z,24.50
2022-08-11T10:18:30.005Z,23.70
2022-08-11T10:24:00.813Z,24.00
2022-08-11T10:29:35.252Z,24.20
2022-08-11T10:34:40.310Z,25.00
2022-08-11T10:39:56.345Z,25.80
2022-08-11T10:45:01.238Z,24.50
2022-08-11T10:50:32.003Z,24.00
2022-08-11T10:55:54.440Z,25.00
2022-08-11T11:06:44.011Z,25.00
2022-08-11T11:12:15.096Z,25.60
2022-08-11T11:17:49.158Z,25.00
2022-08-11T11:22:56.804Z,25.30
2022-08-11T11:28:29.747Z,25.80
2022-08-11T11:34:12.000Z,26.00
2022-08-11T11:39:18.889Z,27.70
2022-08-11T11:44:24.479Z,26.30
2022-08-11T11:49:29.818Z,27.40
2022-08-11T11:54:34.065Z,26.00
2022-08-11T12:00:05.045Z,25.90
2022-08-11T12:05:09.574Z,25.30
2022-08-11T12:10:11.680Z,25.40
2022-08-11T12:15:13.841Z,26.70
2022-08-11T12:20:33.815Z,25.80
2022-08-11T12:31:17.601Z,25.50
2022-08-11T12:36:21.242Z,26.70
2022-08-11T12:41:41.783Z,26.60
2022-08-11T12:46:46.019Z,28.30
2022-08-11T12:52:11.338Z,26.90
2022-08-11T12:57:45.300Z,27.00
2022-08-11T13:03:06.718Z,28.10
2022-08-11T13:08:09.422Z,28.30
2022-08-11T13:13:55.127Z,27.10
2022-08-11T13:18:46.730Z,25.70
2022-08-11T13:24:01.540Z,26.30
2022-08-11T13:34:08.936Z,25.00
2022-08-11T13:44:23.190Z,26.10
2022-08-11T13:54:32.813Z,28.40
2022-08-11T14:05:33.085Z,27.10
2022-08-11T14:10:38.083Z,26.50
2022-08-11T14:15:45.413Z,26.60
2022-08-11T14:21:11.461Z,28.50
2022-08-11T14:26:28.564Z,28.10
2022-08-11T14:31:32.725Z,28.00
2022-08-11T14:36:39.462Z,26.60
2022-08-11T14:42:14.924Z,26.30
2022-08-11T14:47:23.189Z,27.20
2022-08-11T14:57:55.749Z,26.00
2022-08-11T15:03:13.865Z,26.10
2022-08-11T15:08:17.431Z,26.00
2022-08-11T15:13:19.735Z,25.50
2022-08-11T15:18:24.761Z,26.70
2022-08-11T15:23:44.955Z,26.00
2022-08-11T15:29:07.770Z,25.80
2022-08-11T15:34:31.417Z,25.00
2022-08-11T15:39:58.298Z,26.30
2022-08-11T15:45:23.674Z,25.90
2022-08-11T15:50:30.776Z,26.40
2022-08-11T15:55:35.171Z,25.70
2022-08-11T16:01:03.729Z,25.30
2022-08-11T16:06:13.217Z,25.30
2022-08-11T16:11:15.627Z,25.20
2022-08-11T16:16:18.802Z,25.00
2022-08-11T16:21:34.638Z,24.50
2022-08-11T16:27:10.384Z,24.50
2022-08-11T16:32:16.804Z,23.90
2022-08-11T16:37:38.930Z,23.90
2022-08-11T16:43:10.428Z,24.30
2022-08-11T16:53:49.000Z,23.70
2022-08-11T16:59:14.589Z,24.10
2022-08-11T17:04:47.890Z,23.70
2022-08-11T17:10:38.255Z,23.90
2022-08-11T17:15:50.976Z,24.30
2022-08-11T17:20:52.890Z,23.90
2022-08-11T17:26:01.011Z,24.20
2022-08-11T17:31:25.538Z,23.40
2022-08-11T17:41:50.102Z,23.30
2022-08-11T17:47:10.875Z,23.40
2022-08-11T17:52:35.275Z,23.40
2022-08-11T17:57:58.293Z,23.20
2022-08-11T18:03:19.416Z,23.30
2022-08-11T18:08:41.247Z,23.30
2022-08-11T18:14:03.024Z,23.30
2022-08-11T18:19:26.117Z,23.20
2022-08-11T18:24:51.448Z,23.10
2022-08-11T18:30:13.206Z,23.10
2022-08-11T18:35:34.083Z,23.50
2022-08-11T18:40:55.578Z,23.50
2022-08-11T18:46:20.952Z,23.40
2022-08-11T18:51:44.180Z,23.30
2022-08-11T18:57:05.692Z,23.30
2022-08-11T19:02:26.939Z,23.30
2022-08-11T19:07:48.604Z,23.30
2022-08-11T19:13:10.254Z,23.20
2022-08-11T19:18:36.860Z,23.10
2022-08-11T19:24:08.615Z,23.00
2022-08-11T19:30:07.887Z,22.80
2022-08-11T19:35:12.522Z,22.50
2022-08-11T19:40:34.449Z,21.90
2022-08-11T19:45:55.933Z,21.90
2022-08-11T19:51:17.896Z,22.00
2022-08-11T19:56:39.614Z,21.80
2022-08-11T20:02:01.210Z,21.70
2022-08-11T20:07:34.483Z,21.30
2022-08-11T20:12:56.652Z,21.20
2022-08-11T20:18:18.504Z,21.10
2022-08-11T20:23:38.942Z,21.10
2022-08-11T20:29:01.701Z,21.20
2022-08-11T20:34:24.257Z,21.00
2022-08-11T20:39:47.348Z,20.40
2022-08-11T20:45:09.766Z,20.40
2022-08-11T20:50:31.051Z,20.50
2022-08-11T20:55:53.778Z,19.90
2022-08-11T21:01:20.342Z,19.80
2022-08-11T21:06:43.880Z,19.80
2022-08-11T21:12:08.248Z,20.50
2022-08-11T21:17:36.839Z,19.50
2022-08-11T21:23:24.280Z,19.40
2022-08-11T21:28:45.739Z,19.70
2022-08-11T21:34:07.029Z,20.80
2022-08-11T21:39:29.400Z,19.60
2022-08-11T21:44:51.007Z,19.30
2022-08-11T21:50:11.674Z,19.00
2022-08-11T21:55:33.140Z,19.30
2022-08-11T22:06:15.065Z,18.80
2022-08-11T22:11:36.005Z,18.90
2022-08-11T22:16:56.177Z,18.40
2022-08-11T22:22:18.433Z,18.50
2022-08-11T22:27:46.361Z,19.60
2022-08-11T22:33:08.141Z,18.40
2022-08-11T22:38:28.946Z,18.10
2022-08-11T22:43:49.058Z,19.00
2022-08-11T22:49:09.872Z,18.00
2022-08-11T22:54:31.899Z,17.90
2022-08-11T22:59:53.822Z,18.00
2022-08-11T23:05:16.150Z,17.70
2022-08-11T23:10:36.804Z,17.70
2022-08-11T23:15:58.741Z,17.70
2022-08-11T23:26:42.801Z,17.60
2022-08-11T23:32:05.748Z,17.40
2022-08-11T23:37:26.178Z,17.40
2022-08-11T23:42:46.570Z,17.50
2022-08-11T23:48:15.196Z,17.30
2022-08-11T23:53:36.589Z,17.20
2022-08-11T23:58:57.947Z,17.20
